CSH4590 ZGCJ-ZBZJ
Flight info
| Callsign | CSH4590 |
|---|---|
| Flight time | 2h 20m |
| Altitude | 33100 |
| Route | MAKLA W102 EMVIL W284 UPSIK W4 LIMGI W175 AVKES G212 TONOV W640 OC B458 TZH |
| Aircraft | B738/M-SDE2E3FGHIM3RWY/EB1 |
Departure
| Time | 2026-05-05 03:28 |
|---|---|
| Airport | Huaihua Zhijiang Airport (ZGCJ) |
Arrival
| Time | 2026-05-05 05:48 |
|---|---|
| Airport | Zhangjiakou Ningyuan Airport (ZBZJ) |
| Time | Latitude | Longitude | Altitude | Speed | Heading |
|---|---|---|---|---|---|
| 2026-05-05 03:11 | 27.44505 | 109.70241 | 860 ft | 0 kts | 307° |
| 2026-05-05 03:16 | 27.44501 | 109.70246 | 847 ft | 4 kts | 307° |
| 2026-05-05 03:16 | 27.44485 | 109.70271 | 840 ft | 4 kts | 307° |
| 2026-05-05 03:17 | 27.44472 | 109.70290 | 840 ft | 4 kts | 303° |
| 2026-05-05 03:17 | 27.44463 | 109.70316 | 852 ft | 4 kts | 269° |
| 2026-05-05 03:17 | 27.44465 | 109.70334 | 849 ft | 0 kts | 259° |
| 2026-05-05 03:20 | 27.44463 | 109.70325 | 852 ft | 3 kts | 259° |
| 2026-05-05 03:20 | 27.44444 | 109.70308 | 850 ft | 5 kts | 211° |
| 2026-05-05 03:20 | 27.44400 | 109.70272 | 843 ft | 10 kts | 216° |
| 2026-05-05 03:21 | 27.44335 | 109.70218 | 851 ft | 10 kts | 217° |
| 2026-05-05 03:21 | 27.44271 | 109.70214 | 850 ft | 10 kts | 134° |
| 2026-05-05 03:21 | 27.44227 | 109.70278 | 851 ft | 10 kts | 127° |
| 2026-05-05 03:21 | 27.44195 | 109.70344 | 844 ft | 10 kts | 85° |
| 2026-05-05 03:22 | 27.44242 | 109.70396 | 852 ft | 10 kts | 37° |
| 2026-05-05 03:22 | 27.44296 | 109.70441 | 854 ft | 11 kts | 36° |
| 2026-05-05 03:22 | 27.44366 | 109.70499 | 851 ft | 14 kts | 37° |
| 2026-05-05 03:22 | 27.44454 | 109.70573 | 848 ft | 17 kts | 37° |
| 2026-05-05 03:23 | 27.44554 | 109.70657 | 849 ft | 19 kts | 37° |
| 2026-05-05 03:23 | 27.44671 | 109.70756 | 845 ft | 22 kts | 37° |
| 2026-05-05 03:23 | 27.44795 | 109.70858 | 847 ft | 22 kts | 37° |
| 2026-05-05 03:23 | 27.44915 | 109.70960 | 846 ft | 21 kts | 37° |
| 2026-05-05 03:24 | 27.45030 | 109.71056 | 838 ft | 21 kts | 37° |
| 2026-05-05 03:24 | 27.45146 | 109.71152 | 846 ft | 21 kts | 36° |
| 2026-05-05 03:24 | 27.45265 | 109.71252 | 850 ft | 21 kts | 37° |
| 2026-05-05 03:24 | 27.45381 | 109.71349 | 845 ft | 17 kts | 36° |
| 2026-05-05 03:25 | 27.45437 | 109.71396 | 837 ft | 7 kts | 34° |
| 2026-05-05 03:25 | 27.45484 | 109.71410 | 839 ft | 7 kts | 10° |
| 2026-05-05 03:25 | 27.45529 | 109.71425 | 843 ft | 6 kts | 32° |
| 2026-05-05 03:25 | 27.45537 | 109.71466 | 845 ft | 6 kts | 124° |
| 2026-05-05 03:26 | 27.45502 | 109.71461 | 843 ft | 6 kts | 236° |
| 2026-05-05 03:26 | 27.45480 | 109.71432 | 843 ft | 0 kts | 217° |
| 2026-05-05 03:26 | 27.45479 | 109.71431 | 843 ft | 1 kts | 217° |
| 2026-05-05 03:27 | 27.45406 | 109.71370 | 845 ft | 39 kts | 217° |
| 2026-05-05 03:27 | 27.45015 | 109.71043 | 849 ft | 100 kts | 216° |
| 2026-05-05 03:27 | 27.44313 | 109.70459 | 850 ft | 149 kts | 215° |
| 2026-05-05 03:27 | 27.43430 | 109.69757 | 1344 ft | 155 kts | 215° |
| 2026-05-05 03:28 | 27.42563 | 109.69027 | 1989 ft | 159 kts | 216° |
| 2026-05-05 03:28 | 27.41668 | 109.68266 | 2698 ft | 161 kts | 217° |
| 2026-05-05 03:28 | 27.40754 | 109.67473 | 3341 ft | 167 kts | 216° |
| 2026-05-05 03:28 | 27.39852 | 109.66700 | 4148 ft | 162 kts | 217° |
| 2026-05-05 03:29 | 27.38862 | 109.65937 | 4452 ft | 188 kts | 209° |
| 2026-05-05 03:29 | 27.37529 | 109.65649 | 4828 ft | 208 kts | 173° |
| 2026-05-05 03:29 | 27.36201 | 109.66296 | 5326 ft | 215 kts | 140° |
| 2026-05-05 03:29 | 27.35433 | 109.67783 | 5638 ft | 233 kts | 100° |
| 2026-05-05 03:30 | 27.35616 | 109.69591 | 6205 ft | 235 kts | 65° |
| 2026-05-05 03:30 | 27.36651 | 109.70972 | 6762 ft | 234 kts | 26° |
| 2026-05-05 03:30 | 27.38215 | 109.71354 | 7211 ft | 234 kts | 353° |
| 2026-05-05 03:30 | 27.39822 | 109.71136 | 7804 ft | 232 kts | 352° |
| 2026-05-05 03:31 | 27.41420 | 109.70976 | 8356 ft | 234 kts | 353° |
| 2026-05-05 03:31 | 27.43050 | 109.70862 | 8946 ft | 236 kts | 354° |
| 2026-05-05 03:31 | 27.44688 | 109.70761 | 9554 ft | 236 kts | 354° |
| 2026-05-05 03:31 | 27.46367 | 109.70676 | 9897 ft | 250 kts | 355° |
| 2026-05-05 03:32 | 27.48168 | 109.70604 | 10166 ft | 266 kts | 356° |
| 2026-05-05 03:32 | 27.50100 | 109.70529 | 10336 ft | 290 kts | 356° |
| 2026-05-05 03:32 | 27.52170 | 109.70450 | 10524 ft | 313 kts | 356° |
| 2026-05-05 03:32 | 27.54428 | 109.70367 | 10686 ft | 335 kts | 356° |
| 2026-05-05 03:33 | 27.56818 | 109.70280 | 10971 ft | 350 kts | 356° |
| 2026-05-05 03:33 | 27.59279 | 109.70191 | 11530 ft | 356 kts | 356° |
| 2026-05-05 03:33 | 27.61751 | 109.70103 | 12328 ft | 356 kts | 356° |
| 2026-05-05 03:33 | 27.64246 | 109.70014 | 12918 ft | 362 kts | 356° |
| 2026-05-05 03:34 | 27.66747 | 109.69923 | 13608 ft | 365 kts | 356° |
| 2026-05-05 03:34 | 27.69299 | 109.69830 | 14253 ft | 368 kts | 356° |
| 2026-05-05 03:34 | 27.71865 | 109.69736 | 14919 ft | 370 kts | 356° |
| 2026-05-05 03:34 | 27.74415 | 109.69640 | 15563 ft | 372 kts | 356° |
| 2026-05-05 03:35 | 27.77013 | 109.69545 | 16236 ft | 375 kts | 356° |
| 2026-05-05 03:35 | 27.79627 | 109.69447 | 16878 ft | 377 kts | 356° |
| 2026-05-05 03:35 | 27.82264 | 109.69350 | 17522 ft | 379 kts | 356° |
| 2026-05-05 03:35 | 27.84913 | 109.69251 | 18163 ft | 382 kts | 356° |
| 2026-05-05 03:36 | 27.87540 | 109.69153 | 18703 ft | 384 kts | 356° |
| 2026-05-05 03:36 | 27.90215 | 109.69054 | 19300 ft | 384 kts | 355° |
| 2026-05-05 03:36 | 27.92883 | 109.68956 | 19888 ft | 384 kts | 355° |
| 2026-05-05 03:36 | 27.95567 | 109.68856 | 20464 ft | 385 kts | 355° |
| 2026-05-05 03:37 | 27.98249 | 109.68756 | 21021 ft | 386 kts | 355° |
| 2026-05-05 03:37 | 28.00896 | 109.68658 | 21652 ft | 385 kts | 355° |
| 2026-05-05 03:37 | 28.03580 | 109.68558 | 22214 ft | 387 kts | 354° |
| 2026-05-05 03:37 | 28.06276 | 109.68457 | 22757 ft | 387 kts | 354° |
| 2026-05-05 03:38 | 28.08979 | 109.68357 | 23293 ft | 388 kts | 354° |
| 2026-05-05 03:38 | 28.11652 | 109.68257 | 23747 ft | 389 kts | 354° |
| 2026-05-05 03:38 | 28.14361 | 109.68156 | 24117 ft | 391 kts | 354° |
| 2026-05-05 03:38 | 28.17091 | 109.68054 | 24465 ft | 393 kts | 354° |
| 2026-05-05 03:39 | 28.19830 | 109.67951 | 24824 ft | 395 kts | 354° |
| 2026-05-05 03:39 | 28.22587 | 109.67848 | 25195 ft | 397 kts | 354° |
| 2026-05-05 03:39 | 28.25356 | 109.67744 | 25560 ft | 398 kts | 353° |
| 2026-05-05 03:39 | 28.28094 | 109.67642 | 25902 ft | 400 kts | 353° |
| 2026-05-05 03:40 | 28.30888 | 109.67538 | 26245 ft | 402 kts | 353° |
| 2026-05-05 03:40 | 28.33695 | 109.67433 | 26587 ft | 404 kts | 353° |
| 2026-05-05 03:40 | 28.36509 | 109.67328 | 26942 ft | 405 kts | 353° |
| 2026-05-05 03:40 | 28.39332 | 109.67222 | 27274 ft | 406 kts | 353° |
| 2026-05-05 03:41 | 28.42122 | 109.67118 | 27607 ft | 408 kts | 353° |
| 2026-05-05 03:41 | 28.44972 | 109.67013 | 27886 ft | 409 kts | 353° |
| 2026-05-05 03:41 | 28.47821 | 109.66908 | 28067 ft | 411 kts | 353° |
| 2026-05-05 03:41 | 28.50685 | 109.66799 | 28272 ft | 413 kts | 353° |
| 2026-05-05 03:42 | 28.53573 | 109.66689 | 28560 ft | 415 kts | 353° |
| 2026-05-05 03:42 | 28.56425 | 109.66582 | 28886 ft | 416 kts | 353° |
| 2026-05-05 03:42 | 28.59319 | 109.66473 | 29201 ft | 417 kts | 352° |
| 2026-05-05 03:42 | 28.62220 | 109.66365 | 29549 ft | 417 kts | 353° |
| 2026-05-05 03:43 | 28.65120 | 109.66257 | 29996 ft | 414 kts | 352° |
| 2026-05-05 03:43 | 28.68000 | 109.66149 | 30395 ft | 412 kts | 352° |
| 2026-05-05 03:43 | 28.70827 | 109.66043 | 30725 ft | 411 kts | 352° |
| 2026-05-05 03:43 | 28.73686 | 109.65935 | 31022 ft | 412 kts | 352° |
| 2026-05-05 03:44 | 28.76556 | 109.65826 | 31314 ft | 412 kts | 352° |
| 2026-05-05 03:44 | 28.79415 | 109.65717 | 31685 ft | 410 kts | 352° |
| 2026-05-05 03:44 | 28.82255 | 109.65611 | 32100 ft | 407 kts | 352° |
| 2026-05-05 03:44 | 28.85091 | 109.65505 | 32396 ft | 407 kts | 351° |
| 2026-05-05 03:45 | 28.87897 | 109.65398 | 32617 ft | 409 kts | 351° |
| 2026-05-05 03:45 | 28.90748 | 109.65288 | 32858 ft | 410 kts | 351° |
| 2026-05-05 03:45 | 28.93599 | 109.65180 | 33055 ft | 409 kts | 351° |
| 2026-05-05 03:45 | 28.96458 | 109.65071 | 33057 ft | 410 kts | 351° |
| 2026-05-05 03:46 | 29.02124 | 109.64857 | 33068 ft | 409 kts | 351° |
| 2026-05-05 03:46 | 29.07812 | 109.64641 | 33069 ft | 408 kts | 351° |
| 2026-05-05 03:47 | 29.13448 | 109.64427 | 33069 ft | 408 kts | 352° |
| 2026-05-05 03:47 | 29.19128 | 109.64210 | 33059 ft | 408 kts | 352° |
| 2026-05-05 03:48 | 29.24810 | 109.63994 | 33073 ft | 407 kts | 352° |
| 2026-05-05 03:48 | 29.30451 | 109.63779 | 33068 ft | 408 kts | 352° |
| 2026-05-05 03:49 | 29.36115 | 109.63563 | 33072 ft | 407 kts | 352° |
| 2026-05-05 03:49 | 29.41731 | 109.63349 | 33077 ft | 405 kts | 352° |
| 2026-05-05 03:50 | 29.47380 | 109.63132 | 33073 ft | 405 kts | 352° |
| 2026-05-05 03:50 | 29.53034 | 109.62916 | 33080 ft | 406 kts | 352° |
| 2026-05-05 03:51 | 29.58652 | 109.62705 | 33073 ft | 407 kts | 352° |
| 2026-05-05 03:51 | 29.64324 | 109.62492 | 33075 ft | 409 kts | 352° |
| 2026-05-05 03:52 | 29.70021 | 109.62277 | 33077 ft | 409 kts | 352° |
| 2026-05-05 03:52 | 29.75679 | 109.62065 | 33075 ft | 410 kts | 352° |
| 2026-05-05 03:53 | 29.81392 | 109.61850 | 33077 ft | 409 kts | 352° |
| 2026-05-05 03:53 | 29.87084 | 109.61636 | 33074 ft | 408 kts | 353° |
| 2026-05-05 03:54 | 29.92726 | 109.61422 | 33067 ft | 408 kts | 353° |
| 2026-05-05 03:54 | 29.98404 | 109.61207 | 33065 ft | 408 kts | 352° |
| 2026-05-05 03:55 | 30.04039 | 109.60994 | 33065 ft | 408 kts | 353° |
| 2026-05-05 03:55 | 30.09709 | 109.60779 | 33075 ft | 408 kts | 353° |
| 2026-05-05 03:56 | 30.15379 | 109.60564 | 33074 ft | 407 kts | 353° |
| 2026-05-05 03:56 | 30.21041 | 109.60353 | 33068 ft | 407 kts | 353° |
| 2026-05-05 03:57 | 30.26665 | 109.60224 | 33077 ft | 406 kts | 354° |
| 2026-05-05 03:57 | 30.32343 | 109.60357 | 33075 ft | 409 kts | 358° |
| 2026-05-05 03:58 | 30.37985 | 109.60813 | 33082 ft | 409 kts | 358° |
| 2026-05-05 03:58 | 30.43661 | 109.61297 | 33066 ft | 409 kts | 359° |
| 2026-05-05 03:59 | 30.49336 | 109.61824 | 33065 ft | 408 kts | 359° |
| 2026-05-05 03:59 | 30.54955 | 109.62344 | 33071 ft | 407 kts | 359° |
| 2026-05-05 04:00 | 30.60594 | 109.62860 | 33057 ft | 405 kts | 359° |
| 2026-05-05 04:00 | 30.66215 | 109.63373 | 33050 ft | 405 kts | 359° |
| 2026-05-05 04:01 | 30.71800 | 109.63885 | 33084 ft | 402 kts | 359° |
| 2026-05-05 04:01 | 30.77410 | 109.64392 | 33043 ft | 410 kts | 359° |
| 2026-05-05 04:02 | 30.83097 | 109.64913 | 33063 ft | 410 kts | 359° |
| 2026-05-05 04:02 | 30.88799 | 109.65434 | 33045 ft | 411 kts | 360° |
| 2026-05-05 04:03 | 30.94456 | 109.65951 | 33069 ft | 407 kts | 360° |
| 2026-05-05 04:03 | 31.00119 | 109.66469 | 33035 ft | 408 kts | 1° |
| 2026-05-05 04:04 | 31.05701 | 109.66983 | 33078 ft | 401 kts | 360° |
| 2026-05-05 04:04 | 31.11330 | 109.67495 | 33058 ft | 408 kts | 0° |
| 2026-05-05 04:05 | 31.16996 | 109.68012 | 33059 ft | 412 kts | 0° |
| 2026-05-05 04:05 | 31.22706 | 109.68539 | 33051 ft | 409 kts | 0° |
| 2026-05-05 04:06 | 31.28335 | 109.69060 | 33062 ft | 404 kts | 0° |
| 2026-05-05 04:06 | 31.33899 | 109.69571 | 33056 ft | 404 kts | 0° |
| 2026-05-05 04:07 | 31.39511 | 109.70088 | 33063 ft | 404 kts | 0° |
| 2026-05-05 04:07 | 31.45105 | 109.70604 | 33068 ft | 406 kts | 0° |
| 2026-05-05 04:08 | 31.50733 | 109.71124 | 33054 ft | 406 kts | 0° |
| 2026-05-05 04:08 | 31.56365 | 109.71645 | 33049 ft | 406 kts | 0° |
| 2026-05-05 04:09 | 31.62013 | 109.72168 | 33039 ft | 408 kts | 1° |
| 2026-05-05 04:09 | 31.67637 | 109.72690 | 33044 ft | 408 kts | 0° |
| 2026-05-05 04:10 | 31.73301 | 109.73217 | 33027 ft | 408 kts | 1° |
| 2026-05-05 04:10 | 31.78923 | 109.73740 | 33043 ft | 408 kts | 0° |
| 2026-05-05 04:11 | 31.84596 | 109.74267 | 33029 ft | 410 kts | 1° |
| 2026-05-05 04:11 | 31.90295 | 109.74798 | 33028 ft | 410 kts | 1° |
| 2026-05-05 04:12 | 31.95967 | 109.75327 | 33013 ft | 412 kts | 1° |
| 2026-05-05 04:12 | 32.01684 | 109.75862 | 33010 ft | 412 kts | 1° |
| 2026-05-05 04:13 | 32.07405 | 109.76398 | 33009 ft | 412 kts | 1° |
| 2026-05-05 04:13 | 32.13094 | 109.76933 | 32992 ft | 411 kts | 1° |
| 2026-05-05 04:14 | 32.18793 | 109.77476 | 33008 ft | 411 kts | 3° |
| 2026-05-05 04:14 | 32.24350 | 109.79085 | 32983 ft | 418 kts | 17° |
| 2026-05-05 04:15 | 32.29635 | 109.81984 | 33001 ft | 418 kts | 20° |
| 2026-05-05 04:15 | 32.34858 | 109.84927 | 32997 ft | 417 kts | 20° |
| 2026-05-05 04:16 | 32.40095 | 109.87856 | 32988 ft | 416 kts | 20° |
| 2026-05-05 04:16 | 32.45341 | 109.90774 | 32993 ft | 416 kts | 20° |
| 2026-05-05 04:17 | 32.50587 | 109.93688 | 32995 ft | 416 kts | 20° |
| 2026-05-05 04:17 | 32.55800 | 109.96588 | 33006 ft | 416 kts | 20° |
| 2026-05-05 04:18 | 32.61057 | 109.99516 | 32978 ft | 417 kts | 20° |
| 2026-05-05 04:18 | 32.66279 | 110.02428 | 32987 ft | 418 kts | 20° |
| 2026-05-05 04:19 | 32.71565 | 110.05378 | 32986 ft | 420 kts | 20° |
| 2026-05-05 04:19 | 32.76848 | 110.08331 | 32987 ft | 419 kts | 20° |
| 2026-05-05 04:20 | 32.82105 | 110.11278 | 32959 ft | 420 kts | 20° |
| 2026-05-05 04:20 | 32.87386 | 110.14239 | 32992 ft | 420 kts | 21° |
| 2026-05-05 04:21 | 32.92673 | 110.17207 | 32988 ft | 421 kts | 21° |
| 2026-05-05 04:21 | 32.97938 | 110.20167 | 32986 ft | 421 kts | 21° |
| 2026-05-05 04:22 | 33.03238 | 110.23150 | 32984 ft | 421 kts | 21° |
| 2026-05-05 04:22 | 33.08537 | 110.26138 | 32991 ft | 422 kts | 21° |
| 2026-05-05 04:23 | 33.13810 | 110.29114 | 32972 ft | 421 kts | 21° |
| 2026-05-05 04:23 | 33.19095 | 110.32102 | 33003 ft | 420 kts | 21° |
| 2026-05-05 04:24 | 33.24363 | 110.35085 | 32965 ft | 416 kts | 21° |
| 2026-05-05 04:25 | 33.32239 | 110.39547 | 32987 ft | 422 kts | 21° |
| 2026-05-05 04:25 | 33.37557 | 110.42567 | 32976 ft | 424 kts | 21° |
| 2026-05-05 04:26 | 33.42892 | 110.45603 | 32996 ft | 424 kts | 21° |
| 2026-05-05 04:26 | 33.48198 | 110.48624 | 32960 ft | 423 kts | 21° |
| 2026-05-05 04:27 | 33.53504 | 110.51649 | 32986 ft | 423 kts | 21° |
| 2026-05-05 04:27 | 33.58789 | 110.54666 | 32971 ft | 423 kts | 22° |
| 2026-05-05 04:28 | 33.64099 | 110.57702 | 32965 ft | 422 kts | 22° |
| 2026-05-05 04:28 | 33.69404 | 110.60741 | 32970 ft | 421 kts | 21° |
| 2026-05-05 04:29 | 33.74662 | 110.63756 | 32974 ft | 422 kts | 21° |
| 2026-05-05 04:29 | 33.79957 | 110.66796 | 32980 ft | 421 kts | 22° |
| 2026-05-05 04:30 | 33.85249 | 110.69839 | 32978 ft | 422 kts | 22° |
| 2026-05-05 04:30 | 33.90520 | 110.72875 | 32968 ft | 423 kts | 22° |
| 2026-05-05 04:31 | 33.95831 | 110.75937 | 32968 ft | 424 kts | 22° |
| 2026-05-05 04:31 | 34.01160 | 110.79013 | 32954 ft | 425 kts | 22° |
| 2026-05-05 04:32 | 34.06459 | 110.82078 | 32965 ft | 425 kts | 22° |
| 2026-05-05 04:32 | 34.11800 | 110.85171 | 32954 ft | 426 kts | 22° |
| 2026-05-05 04:33 | 34.17123 | 110.88258 | 32946 ft | 426 kts | 22° |
| 2026-05-05 04:33 | 34.22471 | 110.91364 | 32947 ft | 427 kts | 22° |
| 2026-05-05 04:34 | 34.27832 | 110.94482 | 32938 ft | 427 kts | 22° |
| 2026-05-05 04:34 | 34.33164 | 110.97588 | 32930 ft | 428 kts | 22° |
| 2026-05-05 04:35 | 34.38544 | 111.00725 | 32925 ft | 429 kts | 22° |
| 2026-05-05 04:35 | 34.44150 | 111.03014 | 32909 ft | 424 kts | 8° |
| 2026-05-05 04:36 | 34.49966 | 111.03456 | 32918 ft | 421 kts | 358° |
| 2026-05-05 04:36 | 34.55837 | 111.03396 | 32908 ft | 421 kts | 358° |
| 2026-05-05 04:37 | 34.61669 | 111.03362 | 32907 ft | 421 kts | 359° |
| 2026-05-05 04:37 | 34.67535 | 111.03361 | 32902 ft | 422 kts | 359° |
| 2026-05-05 04:38 | 34.73401 | 111.03371 | 32898 ft | 422 kts | 359° |
| 2026-05-05 04:38 | 34.79241 | 111.03379 | 32898 ft | 421 kts | 359° |
| 2026-05-05 04:39 | 34.85106 | 111.03387 | 32900 ft | 421 kts | 359° |
| 2026-05-05 04:39 | 34.90944 | 111.03394 | 32896 ft | 421 kts | 359° |
| 2026-05-05 04:40 | 34.96821 | 111.03401 | 32904 ft | 422 kts | 359° |
| 2026-05-05 04:40 | 35.02709 | 111.03409 | 32892 ft | 423 kts | 359° |
| 2026-05-05 04:41 | 35.08552 | 111.03440 | 32897 ft | 424 kts | 2° |
| 2026-05-05 04:41 | 35.14346 | 111.04839 | 32898 ft | 428 kts | 17° |
| 2026-05-05 04:42 | 35.19771 | 111.07897 | 32902 ft | 430 kts | 24° |
| 2026-05-05 04:42 | 35.25121 | 111.11104 | 32899 ft | 431 kts | 23° |
| 2026-05-05 04:43 | 35.30541 | 111.14271 | 32905 ft | 431 kts | 22° |
| 2026-05-05 04:43 | 35.35933 | 111.17422 | 32906 ft | 432 kts | 23° |
| 2026-05-05 04:44 | 35.41360 | 111.20602 | 32905 ft | 432 kts | 23° |
| 2026-05-05 04:44 | 35.46793 | 111.23792 | 32903 ft | 433 kts | 23° |
| 2026-05-05 04:45 | 35.52202 | 111.26974 | 32910 ft | 433 kts | 23° |
| 2026-05-05 04:45 | 35.57643 | 111.30179 | 32909 ft | 434 kts | 23° |
| 2026-05-05 04:46 | 35.63062 | 111.33376 | 32914 ft | 434 kts | 23° |
| 2026-05-05 04:46 | 35.68511 | 111.36595 | 32900 ft | 434 kts | 23° |
| 2026-05-05 04:47 | 35.73957 | 111.39817 | 32904 ft | 434 kts | 23° |
| 2026-05-05 04:47 | 35.79369 | 111.43025 | 32901 ft | 434 kts | 23° |
| 2026-05-05 04:48 | 35.83116 | 111.45248 | 32908 ft | 434 kts | 23° |
| 2026-05-05 04:48 | 35.87647 | 111.47939 | 32909 ft | 435 kts | 23° |
| 2026-05-05 04:49 | 35.93982 | 111.51708 | 32906 ft | 435 kts | 23° |
| 2026-05-05 04:49 | 35.99440 | 111.54961 | 32910 ft | 435 kts | 23° |
| 2026-05-05 04:50 | 36.04902 | 111.58221 | 32915 ft | 436 kts | 23° |
| 2026-05-05 04:50 | 36.10329 | 111.61465 | 32918 ft | 436 kts | 23° |
| 2026-05-05 04:51 | 36.15790 | 111.64735 | 32918 ft | 436 kts | 23° |
| 2026-05-05 04:51 | 36.21254 | 111.68011 | 32918 ft | 436 kts | 23° |
| 2026-05-05 04:52 | 36.26691 | 111.71277 | 32923 ft | 437 kts | 23° |
| 2026-05-05 04:52 | 36.32175 | 111.74576 | 32916 ft | 438 kts | 23° |
| 2026-05-05 04:53 | 36.37627 | 111.77861 | 32922 ft | 438 kts | 23° |
| 2026-05-05 04:53 | 36.43110 | 111.81170 | 32933 ft | 438 kts | 23° |
| 2026-05-05 04:54 | 36.48607 | 111.84493 | 32931 ft | 439 kts | 23° |
| 2026-05-05 04:54 | 36.54077 | 111.87804 | 32935 ft | 440 kts | 23° |
| 2026-05-05 04:55 | 36.59567 | 111.91134 | 32932 ft | 441 kts | 23° |
| 2026-05-05 04:55 | 36.65080 | 111.94481 | 32943 ft | 440 kts | 23° |
| 2026-05-05 04:56 | 36.70573 | 111.97862 | 32947 ft | 440 kts | 24° |
| 2026-05-05 04:56 | 36.76015 | 112.01274 | 32933 ft | 441 kts | 24° |
| 2026-05-05 04:57 | 36.81510 | 112.04724 | 32931 ft | 440 kts | 24° |
| 2026-05-05 04:57 | 36.86946 | 112.08135 | 32932 ft | 440 kts | 24° |
| 2026-05-05 04:58 | 36.92422 | 112.11573 | 32924 ft | 440 kts | 23° |
| 2026-05-05 04:58 | 36.97898 | 112.15018 | 32918 ft | 440 kts | 23° |
| 2026-05-05 04:59 | 37.03338 | 112.18445 | 32925 ft | 441 kts | 23° |
| 2026-05-05 04:59 | 37.08820 | 112.21904 | 32919 ft | 441 kts | 23° |
| 2026-05-05 05:00 | 37.14334 | 112.25279 | 32916 ft | 441 kts | 22° |
| 2026-05-05 05:00 | 37.19862 | 112.28518 | 32914 ft | 441 kts | 21° |
| 2026-05-05 05:01 | 37.25420 | 112.31787 | 32911 ft | 441 kts | 22° |
| 2026-05-05 05:01 | 37.30939 | 112.35060 | 32915 ft | 441 kts | 22° |
| 2026-05-05 05:02 | 37.36483 | 112.38361 | 32913 ft | 440 kts | 22° |
| 2026-05-05 05:02 | 37.41091 | 112.41108 | 32912 ft | 440 kts | 22° |
| 2026-05-05 05:03 | 37.47518 | 112.44945 | 32916 ft | 440 kts | 22° |
| 2026-05-05 05:03 | 37.52998 | 112.48378 | 32908 ft | 443 kts | 30° |
| 2026-05-05 05:03 | 37.55404 | 112.50826 | 32940 ft | 448 kts | 41° |
| 2026-05-05 05:04 | 37.56794 | 112.52759 | 32926 ft | 452 kts | 48° |
| 2026-05-05 05:04 | 37.58489 | 112.56113 | 32936 ft | 457 kts | 59° |
| 2026-05-05 05:04 | 37.60316 | 112.60913 | 32925 ft | 458 kts | 60° |
| 2026-05-05 05:05 | 37.62640 | 112.66911 | 32932 ft | 457 kts | 59° |
| 2026-05-05 05:05 | 37.65513 | 112.74073 | 32931 ft | 458 kts | 59° |
| 2026-05-05 05:06 | 37.68861 | 112.82411 | 32930 ft | 458 kts | 59° |
| 2026-05-05 05:06 | 37.71726 | 112.89590 | 32926 ft | 458 kts | 59° |
| 2026-05-05 05:07 | 37.74104 | 112.95568 | 32916 ft | 458 kts | 59° |
| 2026-05-05 05:07 | 37.76964 | 113.02780 | 32919 ft | 459 kts | 59° |
| 2026-05-05 05:08 | 37.80288 | 113.11183 | 32918 ft | 459 kts | 59° |
| 2026-05-05 05:08 | 37.82658 | 113.17188 | 32910 ft | 459 kts | 59° |
| 2026-05-05 05:09 | 37.85507 | 113.24423 | 32900 ft | 460 kts | 59° |
| 2026-05-05 05:09 | 37.88358 | 113.31678 | 32898 ft | 460 kts | 59° |
| 2026-05-05 05:10 | 37.91205 | 113.38942 | 32890 ft | 460 kts | 59° |
| 2026-05-05 05:10 | 37.94031 | 113.46166 | 32887 ft | 460 kts | 59° |
| 2026-05-05 05:11 | 37.96865 | 113.53435 | 32874 ft | 460 kts | 59° |
| 2026-05-05 05:11 | 38.00147 | 113.61897 | 32866 ft | 460 kts | 59° |
| 2026-05-05 05:12 | 38.02505 | 113.67992 | 32857 ft | 459 kts | 59° |
| 2026-05-05 05:12 | 38.05297 | 113.75222 | 32864 ft | 459 kts | 59° |
| 2026-05-05 05:13 | 38.08103 | 113.82505 | 32849 ft | 458 kts | 59° |
| 2026-05-05 05:13 | 38.10864 | 113.89689 | 32838 ft | 458 kts | 59° |
| 2026-05-05 05:14 | 38.13655 | 113.96968 | 32833 ft | 458 kts | 59° |
| 2026-05-05 05:14 | 38.16423 | 114.04201 | 32846 ft | 457 kts | 59° |
| 2026-05-05 05:15 | 38.19297 | 114.11406 | 32828 ft | 454 kts | 53° |
| 2026-05-05 05:15 | 38.23006 | 114.17782 | 32838 ft | 450 kts | 47° |
| 2026-05-05 05:16 | 38.26852 | 114.24072 | 32832 ft | 450 kts | 47° |
| 2026-05-05 05:16 | 38.30635 | 114.30370 | 32839 ft | 450 kts | 48° |
| 2026-05-05 05:17 | 38.34413 | 114.36735 | 32831 ft | 451 kts | 48° |
| 2026-05-05 05:17 | 38.38190 | 114.43120 | 32828 ft | 451 kts | 48° |
| 2026-05-05 05:18 | 38.41958 | 114.49452 | 32825 ft | 449 kts | 44° |
| 2026-05-05 05:18 | 38.44266 | 114.52020 | 32834 ft | 436 kts | 26° |
| 2026-05-05 05:18 | 38.47016 | 114.53546 | 32831 ft | 426 kts | 11° |
| 2026-05-05 05:18 | 38.49917 | 114.54150 | 32824 ft | 420 kts | 358° |
| 2026-05-05 05:19 | 38.52765 | 114.53823 | 32839 ft | 414 kts | 346° |
| 2026-05-05 05:19 | 38.58397 | 114.52253 | 32837 ft | 415 kts | 346° |
| 2026-05-05 05:20 | 38.64058 | 114.50760 | 32829 ft | 415 kts | 346° |
| 2026-05-05 05:20 | 38.69708 | 114.49344 | 32839 ft | 416 kts | 347° |
| 2026-05-05 05:21 | 38.75390 | 114.47911 | 32841 ft | 416 kts | 346° |
| 2026-05-05 05:21 | 38.81074 | 114.46468 | 32851 ft | 416 kts | 346° |
| 2026-05-05 05:22 | 38.86718 | 114.45042 | 32845 ft | 416 kts | 346° |
| 2026-05-05 05:22 | 38.92393 | 114.43606 | 32850 ft | 416 kts | 346° |
| 2026-05-05 05:23 | 38.98038 | 114.42175 | 32862 ft | 416 kts | 346° |
| 2026-05-05 05:23 | 39.03735 | 114.40728 | 32840 ft | 417 kts | 346° |
| 2026-05-05 05:24 | 39.09391 | 114.39285 | 32855 ft | 416 kts | 346° |
| 2026-05-05 05:24 | 39.15062 | 114.37822 | 32840 ft | 415 kts | 346° |
| 2026-05-05 05:25 | 39.20718 | 114.36365 | 32845 ft | 414 kts | 346° |
| 2026-05-05 05:25 | 39.26376 | 114.34911 | 32841 ft | 414 kts | 346° |
| 2026-05-05 05:26 | 39.31984 | 114.33466 | 32839 ft | 414 kts | 346° |
| 2026-05-05 05:26 | 39.37639 | 114.32011 | 32831 ft | 414 kts | 346° |
| 2026-05-05 05:27 | 39.43298 | 114.30546 | 32324 ft | 419 kts | 346° |
| 2026-05-05 05:27 | 39.46143 | 114.29805 | 31726 ft | 416 kts | 346° |
| 2026-05-05 05:27 | 39.51709 | 114.28356 | 30793 ft | 407 kts | 346° |
| 2026-05-05 05:28 | 39.54473 | 114.27635 | 30304 ft | 403 kts | 346° |
| 2026-05-05 05:28 | 39.57221 | 114.26917 | 29829 ft | 400 kts | 346° |
| 2026-05-05 05:28 | 39.59901 | 114.26217 | 29292 ft | 397 kts | 346° |
| 2026-05-05 05:28 | 39.62595 | 114.25512 | 28767 ft | 393 kts | 346° |
| 2026-05-05 05:29 | 39.65257 | 114.24816 | 28275 ft | 389 kts | 346° |
| 2026-05-05 05:29 | 39.67897 | 114.24124 | 27792 ft | 385 kts | 346° |
| 2026-05-05 05:29 | 39.70508 | 114.23440 | 27302 ft | 382 kts | 346° |
| 2026-05-05 05:29 | 39.73103 | 114.22759 | 26818 ft | 379 kts | 346° |
| 2026-05-05 05:30 | 39.75676 | 114.22084 | 26347 ft | 376 kts | 346° |
| 2026-05-05 05:30 | 39.78199 | 114.21420 | 25888 ft | 373 kts | 346° |
| 2026-05-05 05:30 | 39.80738 | 114.20752 | 25422 ft | 371 kts | 346° |
| 2026-05-05 05:30 | 39.83264 | 114.20087 | 24956 ft | 369 kts | 346° |
| 2026-05-05 05:31 | 39.85779 | 114.19425 | 24504 ft | 368 kts | 346° |
| 2026-05-05 05:31 | 39.88282 | 114.18765 | 24030 ft | 367 kts | 346° |
| 2026-05-05 05:31 | 39.90783 | 114.18105 | 23567 ft | 366 kts | 346° |
| 2026-05-05 05:31 | 39.93281 | 114.17446 | 23058 ft | 367 kts | 346° |
| 2026-05-05 05:32 | 39.95783 | 114.16784 | 22554 ft | 366 kts | 346° |
| 2026-05-05 05:32 | 39.98245 | 114.16134 | 22066 ft | 364 kts | 346° |
| 2026-05-05 05:32 | 40.00721 | 114.15479 | 21607 ft | 362 kts | 346° |
| 2026-05-05 05:32 | 40.03179 | 114.14829 | 21154 ft | 359 kts | 346° |
| 2026-05-05 05:33 | 40.05622 | 114.14184 | 20664 ft | 358 kts | 346° |
| 2026-05-05 05:33 | 40.08040 | 114.13563 | 20114 ft | 359 kts | 346° |
| 2026-05-05 05:33 | 40.10498 | 114.12940 | 19665 ft | 358 kts | 346° |
| 2026-05-05 05:33 | 40.12936 | 114.12323 | 19218 ft | 356 kts | 346° |
| 2026-05-05 05:34 | 40.15364 | 114.11708 | 18782 ft | 354 kts | 346° |
| 2026-05-05 05:34 | 40.17775 | 114.11094 | 18348 ft | 353 kts | 346° |
| 2026-05-05 05:34 | 40.20178 | 114.10481 | 17915 ft | 351 kts | 346° |
| 2026-05-05 05:34 | 40.22544 | 114.09878 | 17447 ft | 350 kts | 346° |
| 2026-05-05 05:35 | 40.24927 | 114.09269 | 16994 ft | 348 kts | 346° |
| 2026-05-05 05:35 | 40.27302 | 114.08661 | 16543 ft | 346 kts | 346° |
| 2026-05-05 05:35 | 40.29659 | 114.08055 | 16099 ft | 344 kts | 345° |
| 2026-05-05 05:35 | 40.32006 | 114.07450 | 15662 ft | 343 kts | 345° |
| 2026-05-05 05:36 | 40.34346 | 114.06846 | 15229 ft | 342 kts | 345° |
| 2026-05-05 05:36 | 40.36652 | 114.06305 | 14797 ft | 342 kts | 351° |
| 2026-05-05 05:36 | 40.39046 | 114.06636 | 14356 ft | 351 kts | 14° |
| 2026-05-05 05:36 | 40.41211 | 114.08145 | 13915 ft | 359 kts | 36° |
| 2026-05-05 05:37 | 40.42859 | 114.10631 | 13454 ft | 366 kts | 58° |
| 2026-05-05 05:37 | 40.43988 | 114.13578 | 12990 ft | 367 kts | 64° |
| 2026-05-05 05:37 | 40.45039 | 114.16635 | 12529 ft | 367 kts | 65° |
| 2026-05-05 05:37 | 40.46078 | 114.19691 | 12080 ft | 366 kts | 65° |
| 2026-05-05 05:38 | 40.47136 | 114.22733 | 11639 ft | 365 kts | 64° |
| 2026-05-05 05:38 | 40.48208 | 114.25757 | 11209 ft | 364 kts | 64° |
| 2026-05-05 05:38 | 40.49282 | 114.28766 | 10781 ft | 363 kts | 64° |
| 2026-05-05 05:38 | 40.50354 | 114.31761 | 10480 ft | 358 kts | 64° |
| 2026-05-05 05:39 | 40.51377 | 114.34627 | 10459 ft | 343 kts | 64° |
| 2026-05-05 05:39 | 40.52374 | 114.37422 | 10361 ft | 333 kts | 64° |
| 2026-05-05 05:39 | 40.53345 | 114.40173 | 10140 ft | 329 kts | 65° |
| 2026-05-05 05:39 | 40.54290 | 114.42868 | 10001 ft | 321 kts | 65° |
| 2026-05-05 05:40 | 40.55220 | 114.45522 | 9713 ft | 319 kts | 65° |
| 2026-05-05 05:40 | 40.56147 | 114.48169 | 9415 ft | 318 kts | 65° |
| 2026-05-05 05:40 | 40.57062 | 114.50778 | 9091 ft | 318 kts | 65° |
| 2026-05-05 05:40 | 40.57987 | 114.53420 | 8786 ft | 318 kts | 65° |
| 2026-05-05 05:41 | 40.58964 | 114.55993 | 8419 ft | 310 kts | 54° |
| 2026-05-05 05:41 | 40.60446 | 114.57954 | 8141 ft | 296 kts | 31° |
| 2026-05-05 05:41 | 40.62247 | 114.59123 | 7795 ft | 282 kts | 20° |
| 2026-05-05 05:41 | 40.64016 | 114.60038 | 7661 ft | 265 kts | 18° |
| 2026-05-05 05:42 | 40.65708 | 114.60873 | 7375 ft | 259 kts | 18° |
| 2026-05-05 05:42 | 40.67375 | 114.61710 | 7168 ft | 253 kts | 18° |
| 2026-05-05 05:42 | 40.69007 | 114.62545 | 6949 ft | 251 kts | 18° |
| 2026-05-05 05:42 | 40.70651 | 114.63392 | 6742 ft | 256 kts | 19° |
| 2026-05-05 05:43 | 40.72291 | 114.64242 | 6503 ft | 250 kts | 19° |
| 2026-05-05 05:43 | 40.73851 | 114.65055 | 6270 ft | 240 kts | 19° |
| 2026-05-05 05:43 | 40.75376 | 114.65848 | 6040 ft | 231 kts | 19° |
| 2026-05-05 05:43 | 40.76844 | 114.66612 | 5840 ft | 222 kts | 20° |
| 2026-05-05 05:44 | 40.78247 | 114.67344 | 5630 ft | 212 kts | 20° |
| 2026-05-05 05:44 | 40.79563 | 114.68096 | 5420 ft | 208 kts | 33° |
| 2026-05-05 05:44 | 40.80438 | 114.69529 | 5205 ft | 200 kts | 75° |
| 2026-05-05 05:44 | 40.80513 | 114.71313 | 5034 ft | 197 kts | 107° |
| 2026-05-05 05:45 | 40.80079 | 114.73058 | 4797 ft | 205 kts | 117° |
| 2026-05-05 05:45 | 40.79546 | 114.74815 | 4537 ft | 205 kts | 116° |
| 2026-05-05 05:45 | 40.79019 | 114.76511 | 4330 ft | 196 kts | 118° |
| 2026-05-05 05:45 | 40.78524 | 114.78107 | 4215 ft | 183 kts | 117° |
| 2026-05-05 05:46 | 40.78042 | 114.79672 | 3959 ft | 181 kts | 120° |
| 2026-05-05 05:46 | 40.77577 | 114.81175 | 3723 ft | 173 kts | 116° |
| 2026-05-05 05:46 | 40.77148 | 114.82593 | 3562 ft | 167 kts | 117° |
| 2026-05-05 05:46 | 40.76715 | 114.84010 | 3382 ft | 166 kts | 115° |
| 2026-05-05 05:47 | 40.76293 | 114.85405 | 3248 ft | 162 kts | 115° |
| 2026-05-05 05:47 | 40.75873 | 114.86799 | 3048 ft | 164 kts | 116° |
| 2026-05-05 05:47 | 40.75457 | 114.88190 | 2819 ft | 162 kts | 116° |
| 2026-05-05 05:47 | 40.75029 | 114.89565 | 2608 ft | 161 kts | 117° |
| 2026-05-05 05:48 | 40.74616 | 114.90928 | 2433 ft | 159 kts | 115° |
| 2026-05-05 05:48 | 40.74213 | 114.92262 | 2332 ft | 156 kts | 116° |
| 2026-05-05 05:48 | 40.73872 | 114.93374 | 2339 ft | 101 kts | 111° |
| 2026-05-05 05:48 | 40.73690 | 114.93974 | 2351 ft | 40 kts | 111° |
| 2026-05-05 05:49 | 40.73644 | 114.94127 | 2351 ft | 14 kts | 111° |
| 2026-05-05 05:49 | 40.73608 | 114.94246 | 2354 ft | 14 kts | 112° |
| 2026-05-05 05:49 | 40.73574 | 114.94358 | 2351 ft | 13 kts | 111° |
| 2026-05-05 05:49 | 40.73550 | 114.94470 | 2353 ft | 13 kts | 85° |
| 2026-05-05 05:50 | 40.73612 | 114.94539 | 2352 ft | 12 kts | 23° |
| 2026-05-05 05:50 | 40.73689 | 114.94582 | 2354 ft | 11 kts | 22° |
| 2026-05-05 05:50 | 40.73736 | 114.94607 | 2355 ft | 7 kts | 20° |
| 2026-05-05 05:50 | 40.73782 | 114.94614 | 2357 ft | 7 kts | 19° |
| 2026-05-05 05:51 | 40.73818 | 114.94638 | 2359 ft | 5 kts | 26° |
| 2026-05-05 05:51 | 40.73836 | 114.94649 | 2361 ft | 2 kts | 24° |
| 2026-05-05 05:51 | 40.73839 | 114.94651 | 2361 ft | 0 kts | 24° |